Marco Castro

Olheiro-Chefe - Sporting CP
13 Nov 2027
Sábado
Processo

Personalidade

Adaptabilidade (7) Ambição (7) Controvérsia (20) Lealdade (20) Pressão (2) Profissionalismo (2) Espírito Esportivo (2) Temperamento (10)

Perfil

Estilo de Treinamento Democrático
Licença Continental A
Determinação 13
Gestão de Pessoas 10
Motivação 9
Disciplina 12
Satisfação no Trabalho
100%
Fadiga
0%
Função Olheiro-Chefe
Salário 55.3K p/s
Contrato 14.03.2028

Desempenho

Comportamento Bom
Eficácia do Treinamento
45%
Desenvolvimento do Jogador
40%
Prevenção de Lesões
35%
Implementação Tática
40%

Eventos Recentes

Participou de uma reunião de recrutamento agora
Recomendou um alvo de transferência agora
Recomendou um alvo de transferência agora
Recomendou um alvo de transferência agora
Recomendou um alvo de transferência agora
Recomendou um alvo de transferência agora
Recomendou um alvo de transferência agora
Avaliou um jogador agora

Monitorando agora

189
Jogador Clube Status Habilidade Confiança Observado Última observação Último voto
Yanis Begraoui Estoril Praia Ativo 136 / 142 40% 3 12.11.2027 -
Jesus Ferreira Seattle Sounders Ativo 140 / 128 40% 6 12.11.2027 -
Thierno Barry Watford Ativo 142 / 146 40% 2 12.11.2027 -
Santiago Sanchez Santa Fe Ativo 137 / 132 40% 3 11.11.2027 -
Luca Langoni New England Revolution Ativo 130 / 136 40% 3 11.11.2027 -
Pedro Flamengo Ativo 146 / 143 40% 7 11.11.2027 -
Yuri Alberto Corinthians Ativo 138 / 143 40% 4 09.11.2027 -
Igor Jesus Nottingham Forest Ativo 148 / 145 40% 3 09.11.2027 -
Mateo Cassierra Atlético Mineiro Ativo 130 / 136 40% 3 09.11.2027 -
Brennan Johnson Everton Ativo 150 / 150 40% 17 08.11.2027 -
Oskar Spiten-Nysæter Molde Ativo 111 / 127 40% 1 08.11.2027 -
Pau Víctor Estrela da Amadora Ativo 143 / 143 40% 25 07.11.2027 -
Breel Embolo Atlanta United FC Ativo 134 / 136 40% 5 07.11.2027 -
Fábio Carvalho Brentford Ativo 144 / 142 40% 14 05.11.2027 -
Rodrigo Muniz Fulham Ativo 144 / 145 40% 13 05.11.2027 -
Martín Ojeda Orlando City Ativo 139 / 139 40% 2 04.11.2027 -
Dany Mota Rapid Wien Ativo 136 / 132 40% 3 04.11.2027 -
Liel Abada Charlotte Football Club Ativo 138 / 135 40% 2 04.11.2027 -
Iliman N'Diaye Everton Ativo 164 / 159 40% 3 03.11.2027 -
Alan Velasco Boca Juniors Ativo 137 / 135 40% 1 03.11.2027 -
Liam Delap Nottingham Forest Ativo 155 / 152 40% 14 02.11.2027 -
Talles Magno New York City Ativo 131 / 134 40% 2 01.11.2027 -
Roberto Fernández Braga Ativo 141 / 141 40% 2 21.10.2027 -
Kevin Schade Brentford Ativo 150 / 155 40% 9 19.10.2027 -
Jonas Wind Braga Ativo 139 / 138 40% 9 19.10.2027 -
Pablo Felipe West Ham United Ativo 135 / 138 40% 1 16.10.2027 -
Nicolás Azambuja Danubio Ativo 117 / 131 40% 2 14.10.2027 -
Christian Kouamé Atletico Nacional Ativo 139 / 131 40% 1 14.10.2027 -
Richarlison Birmingham Ativo 148 / 146 40% 1 13.10.2027 -
Gonçalo Ramos AC Milan Ativo 154 / 154 40% 5 12.10.2027 -
Agustín Ruberto River Plate Ativo 125 / 126 40% 1 08.10.2027 -
Thiago Brentford Ativo 153 / 149 40% 5 06.10.2027 -
Mathias Pereira Lage St. Pauli Perdido 141 / 138 40% 1 23.08.2027 -
Luca Langoni New England Revolution Perdido 131 / 136 40% 1 23.08.2027 -
Yarden Shua Beitar Jerusalem Perdido 142 / 127 40% 1 23.08.2027 -
Randal Kolo Muani Juventus Ativo 151 / 154 40% 8 16.08.2027 -
Nicolò Zaniolo Udinese Ativo 147 / 146 40% 1 16.08.2027 -
Mathias Pereira Lage St. Pauli Perdido 140 / 136 40% 1 16.08.2027 -
Mamadou Coulibaly Al Jazira Ativo 129 / 129 40% 1 12.08.2027 -
Cauan Barros Vasco da Gama Ativo 127 / 128 40% 1 12.08.2027 -
Roger François Udinese Ativo 151 / 152 40% 1 11.08.2027 -
Lander Astiazarán Real Sociedad Ativo 108 / 119 40% 1 11.08.2027 -
Antonio Vergara Napoli Ativo 142 / 146 40% 1 11.08.2027 -
Julio Enciso Ipswich Town Ativo 152 / 147 40% 5 09.08.2027 -
Tim Iroegbunam Hull City Ativo 145 / 146 40% 2 09.08.2027 -
Shea Charles Southampton Ativo 145 / 147 40% 1 09.08.2027 -
Luis Quintero Torreense Ativo 135 / 127 40% 5 08.08.2027 -
Malick Fofana Sunderland Ativo 148 / 150 40% 1 08.08.2027 -
Othmane Maamma Watford Ativo 132 / 132 40% 2 05.08.2027 -
Mohamed-Ali Cho Hull City Perdido 138 / 142 40% 2 05.08.2027 -
Rodrigo Pinheiro Famalicao Ativo 135 / 134 40% 1 05.08.2027 -
Alexis Vega Famalicao Ativo 152 / 149 40% 11 03.08.2027 -
Ismaïla Sarr Crystal Palace Ativo 153 / 149 40% 13 02.08.2027 -
Gonzalo Fulham Ativo 149 / 150 40% 6 01.08.2027 -
Yehor Yarmoliuk Brentford Ativo 150 / 156 40% 1 01.08.2027 -
Martin Baturina Como Ativo 142 / 140 40% 1 31.07.2027 -
Max Johnston Derby County Ativo 132 / 131 40% 1 31.07.2027 -
Jens Odgaard Bologna Ativo 142 / 141 40% 1 29.07.2027 -
Germán Berterame Brighton Ativo 138 / 136 40% 1 29.07.2027 -
Nikola Vlašić Torino Ativo 153 / 150 40% 1 28.07.2027 -
Armando Broja Burnley Ativo 138 / 138 40% 1 28.07.2027 -
Sidiki Chérif Coventry City Ativo 127 / 138 40% 1 27.07.2027 -
Petar Musa Braga Ativo 143 / 137 40% 6 26.07.2027 -
Andrea Pinamonti Lazio Ativo 140 / 142 40% 1 26.07.2027 -
Rodrigo Pinheiro Famalicao Perdido 132 / 131 40% 1 19.07.2027 -
Andre Brooks Sheffield United Ativo 129 / 138 40% 1 19.07.2027 -
Zian Flemming Ipswich Town Ativo 139 / 133 40% 1 13.07.2027 -
Dominic Solanke Tottenham Ativo 154 / 148 40% 9 06.07.2027 -
Taiwo Awoniyi Coventry City Ativo 141 / 142 40% 7 06.07.2027 -
Zian Flemming Ipswich Town Perdido 133 / 132 40% 1 06.07.2027 -
Dango Ouattara Brentford Ativo 148 / 148 40% 13 01.07.2027 -
Yanis Begraoui Estoril Praia Perdido 141 / 140 40% 1 01.07.2027 -
Kevin Fulham Ativo 153 / 154 40% 7 21.06.2027 -
Mikkel Damsgaard Brentford Ativo 150 / 150 40% 2 21.06.2027 -
Yanis Begraoui Estoril Praia Perdido 136 / 136 40% 7 14.06.2027 -
Jérémy Livolant Casa Pia Ativo 128 / 120 79% 1 02.06.2027 Aprovar
Roberto Alvarado Porto Ativo 139 / 139 66% 1 01.06.2027 Aprovar
Marcel Ruiz Brentford Negociando 140 / 141 66% 1 01.06.2027 Aprovar
Oumar Camara Vitoria Guimaraes Perdido 124 / 127 79% 1 01.06.2027 -
Jean-Philippe Mateta Crystal Palace Ativo 151 / 150 40% 10 31.05.2027 -
Frédéric Perrot Union Berlin Ativo 132 / 131 40% 3 29.05.2027 -
Dávid Strelec Middlesbrough Ativo 136 / 138 40% 3 26.05.2027 -
Bahia Juventude Ativo 113 / 119 40% 1 26.05.2027 -
Caleb Yirenkyi Coventry City Ativo 139 / 140 40% 1 26.05.2027 -
Riquelme Thompson-Jones Shrewsbury Town Ativo 100 / 116 40% 1 26.05.2027 -
Tammy Abraham Aston Villa Ativo 146 / 138 40% 8 24.05.2027 -
André Gomes Casa Pia Ativo 131 / 134 40% 2 24.05.2027 -
Zion Suzuki Aston Villa Ativo 145 / 149 40% 2 24.05.2027 -
James Trafford Leeds United Ativo 145 / 142 40% 1 22.05.2027 -
Kostantis Tzolakis Hull City Ativo 147 / 145 40% 2 21.05.2027 -
Nicolas Jackson Aston Villa Ativo 144 / 151 40% 3 20.05.2027 -
Santiago Castro AS Roma Ativo 152 / 148 40% 6 20.05.2027 -
Radek Vítek Middlesbrough Ativo 141 / 142 40% 3 17.05.2027 -
Biel La Equidad Ativo 114 / 126 40% 1 17.05.2027 -
Mohammed Wakaso Hasaacas Ativo 101 / 98 40% 1 17.05.2027 -
Edwin Asamoah Berekum Chelsea Ativo 79 / 88 40% 1 17.05.2027 -
Fedor Lapoukhov CSKA Sofia Ativo 125 / 120 40% 2 16.05.2027 -
Senne Lammens Manchester United Ativo 154 / 156 40% 1 16.05.2027 -
Kyrylo Fesiun Shakhtar Ativo 125 / 124 40% 1 16.05.2027 -
Chris Brady Bayer Leverkusen Ativo 134 / 134 40% 1 14.05.2027 -
George Hirst Stoke City Ativo 135 / 136 40% 10 12.05.2027 -
Antonio Gomis Vizela Ativo 124 / 123 40% 2 11.05.2027 -
Charles De Ketelaere Atalanta Ativo 156 / 152 40% 2 11.05.2027 -
Ottó Hindrich Legia Ativo 120 / 126 40% 1 11.05.2027 -
Yankuba Minteh Brighton Ativo 151 / 154 40% 1 09.05.2027 -
Roberto Fernández Braga Perdido 148 / 137 40% 20 08.05.2027 -
Ronald Swansea City Ativo 125 / 130 40% 2 08.05.2027 -
Thiago Almada Fiorentina Ativo 152 / 145 40% 5 02.05.2027 -
Rafael Leão Galatasaray Ativo 164 / 165 40% 24 01.05.2027 -
Emile Smith Rowe Fulham Ativo 156 / 148 40% 3 01.05.2027 -
Guilherme Ribeiro Vitoria Guimaraes Ativo 104 / 109 40% 1 30.04.2027 -
Florentino Luís Ipswich Town Ativo 144 / 144 40% 10 22.04.2027 -
Jorrel Hato Chelsea Ativo 143 / 156 40% 1 21.04.2027 -
Gianluca Scamacca Atalanta Ativo 152 / 145 40% 8 18.04.2027 -
Kahiser Lenis Feirense Ativo 123 / 118 40% 1 13.04.2027 -
Erick Pulga Bahia Ativo 138 / 132 40% 1 13.04.2027 -
Marcos Antonio Sport Recife Ativo 144 / 136 40% 1 11.04.2027 -
Gabriel Pec Cruzeiro Ativo 135 / 130 40% 1 11.04.2027 -
Nuno Moreira Vasco da Gama Ativo 130 / 131 40% 1 10.04.2027 -
T-Jay Parfitt Cardiff City Ativo 94 / 98 40% 1 09.04.2027 -
Ollie Scarles Chelsea Ativo 132 / 131 40% 1 09.04.2027 -
Jofre Torrents Ajax Ativo 122 / 132 40% 1 09.04.2027 -
Rodrigo Gomes Wolverhampton Ativo 134 / 141 40% 3 07.04.2027 -
Mario Dorgeles Braga Ativo 129 / 138 40% 6 07.04.2027 -
Lorougnon Gohi Académico de Viseu Ativo 120 / 113 40% 2 05.04.2027 -
Henry Mosquera Bragantino Ativo 128 / 129 40% 1 05.04.2027 -
Helinho Toluca Ativo 130 / 124 40% 5 22.03.2027 -
Abraham Marcus Estrela da Amadora Ativo 128 / 128 40% 2 22.03.2027 -
Roger Fernandes Al-Ittihad Ativo 142 / 133 40% 2 17.03.2027 -
Manu Pozo Torreense Ativo 123 / 115 40% 2 17.03.2027 -
Josh Keeley Luton Town Ativo 128 / 125 40% 2 14.03.2027 -
Max Weiß Wolverhampton Ativo 127 / 129 40% 1 14.03.2027 -
Svetoslav Vutsov Levski Ativo 124 / 126 40% 1 11.03.2027 -
Juan Diego Castillo Vitoria Guimaraes Ativo 119 / 121 40% 1 11.03.2027 -
Federico Chiesa Tottenham Ativo 158 / 152 40% 1 04.03.2027 -
Christian Pulisic AC Milan Ativo 162 / 165 40% 1 03.03.2027 -
Eddie Nketiah Crystal Palace Ativo 142 / 137 40% 1 25.02.2027 -
Enzo Loiodice KAA Gent Ativo 127 / 133 40% 4 20.02.2027 -
Relebohile Mofokeng Orlando Pirates Ativo 119 / 123 40% 1 15.02.2027 -
Kerem Aktürkoğlu Fenerbahce Ativo 147 / 142 40% 2 14.02.2027 -
Youssef En-Nesyri Al-Ittihad Ativo 145 / 136 40% 1 14.02.2027 -
Marcus Rashford Manchester United Ativo 164 / 161 40% 5 02.02.2027 -
Steven Bergwijn Al-Ittihad Ativo 142 / 147 40% 1 15.01.2027 -
Mohammed Kudus Tottenham Ativo 160 / 154 40% 1 13.01.2027 -
Bitello Empoli Ativo 135 / 135 68% 1 01.01.2027 Aprovar
José Paradela Cerro Porteno Negociando 137 / 137 66% 1 01.01.2027 Aprovar
Stanislav Agkatsev TSG Hoffenheim Negociando 132 / 133 66% 1 01.01.2027 -
Igoh Ogbu Anderlecht Negociando 146 / 146 90% 1 01.01.2027 -
Amad Manchester United Ativo 148 / 152 40% 2 30.12.2026 -
Francisco Conceição Juventus Ativo 160 / 157 40% 8 29.12.2026 -
Igor Burnley Ativo 146 / 136 40% 1 29.12.2026 -
Diogo Dalot Manchester United Ativo 143 / 142 40% 6 24.12.2026 -
Mason Mount Manchester United Ativo 155 / 148 40% 5 21.12.2026 -
Savinho Tottenham Ativo 156 / 158 40% 4 21.12.2026 -
Xavi Simons Tottenham Ativo 151 / 163 40% 1 20.12.2026 -
Boubacar Kamara Aston Villa Ativo 160 / 160 40% 3 15.12.2026 -
Enzo Barrenechea Burnley Ativo 151 / 146 40% 4 14.12.2026 -
Bruno Guimarães Arsenal Ativo 164 / 168 40% 1 10.12.2026 -
Xavier Venâncio Montana Ativo 88 / 91 40% 5 09.12.2026 -
Wallace Yan Flamengo Ativo 119 / 127 40% 1 09.12.2026 -
Kiernan Dewsbury-Hall Everton Ativo 144 / 150 40% 1 09.12.2026 -
Gedson Fernandes Spartak Moscow Ativo 137 / 130 40% 3 04.12.2026 -
Thierry Rendall Correia Venezia Ativo 138 / 134 40% 1 04.12.2026 -
Carlos Vicente Udinese Ativo 144 / 141 40% 1 01.12.2026 -
Marquinhos Spartak Moscow Ativo 129 / 128 40% 1 01.12.2026 -
Carlos Álvarez Club America Ativo 145 / 142 40% 3 21.11.2026 -
Rúben Neves Al-Hilal Ativo 154 / 143 40% 3 16.11.2026 -
James Maddison Tottenham Ativo 158 / 153 40% 2 15.11.2026 -
Amadou Onana Newcastle United Ativo 150 / 151 40% 1 12.11.2026 -
Óscar Mingueza Crystal Palace Ativo 149 / 149 40% 1 08.11.2026 -
Mateus Fernandes Tottenham Ativo 140 / 144 40% 1 05.11.2026 -
Carlos Forbs Club Brugge Ativo 136 / 130 40% 2 17.10.2026 -
Miguel Pereira Persebaya Ativo 116 / 123 40% 2 15.10.2026 -
João Félix Aston Villa Ativo 159 / 150 40% 1 12.10.2026 -
Paulo Moreira Aston Villa Ativo 130 / 130 40% 4 03.10.2026 -
Gonçalo Franco Swansea City Ativo 122 / 125 40% 1 03.10.2026 -
Rafael Brito Luton Town Ativo 111 / 113 40% 1 02.10.2026 -
David Da Costa Portland Timbers Ativo 135 / 121 40% 2 28.09.2026 -
João Carlos Criciuma Ativo 101 / 110 40% 1 20.09.2026 -
Diego Lainez Tigres Ativo 128 / 121 40% 2 16.09.2026 -
Zé Gabriel São Paulo Ativo 111 / 109 40% 1 15.09.2026 -
Rafael Rech Juventude Ativo 99 / 98 40% 1 13.09.2026 -
Léo Maná Corinthians Ativo 104 / 103 40% 1 12.09.2026 -
Riquelme Grêmio Ativo 99 / 102 40% 1 11.09.2026 -
Júlio Fidelis Fluminense Ativo 97 / 104 40% 1 10.09.2026 -
Jair Tavares Lokomotiv Sofia Ativo 90 / 94 40% 1 10.09.2026 -
Kaique Kenji Cruzeiro Ativo 105 / 121 40% 1 08.09.2026 -
Yaya Sithole Tondela Ativo 108 / 103 76% 1 03.08.2026 Aprovar
Malcom Al Jazira Ativo 149 / 142 40% 1 03.08.2026 -